createdAt,value
2023-03-29T00:02:31.161Z,2.50
2023-03-29T00:07:36.542Z,2.65
2023-03-29T00:12:41.646Z,2.92
2023-03-29T00:17:46.629Z,3.00
2023-03-29T00:22:52.039Z,2.70
2023-03-29T00:27:55.668Z,3.17
2023-03-29T00:33:00.218Z,3.50
2023-03-29T00:38:06.343Z,3.08
2023-03-29T00:43:11.462Z,3.20
2023-03-29T00:48:17.293Z,3.22
2023-03-29T00:53:23.885Z,3.03
2023-03-29T00:58:29.990Z,3.08
2023-03-29T01:03:38.225Z,2.95
2023-03-29T01:08:44.926Z,3.10
2023-03-29T01:13:57.752Z,2.85
2023-03-29T01:19:02.351Z,3.55
2023-03-29T01:24:20.453Z,3.63
2023-03-29T01:29:28.645Z,2.90
2023-03-29T01:34:36.748Z,2.97
2023-03-29T01:39:41.494Z,3.30
2023-03-29T01:44:53.229Z,3.47
2023-03-29T01:50:02.421Z,3.47
2023-03-29T01:55:08.370Z,3.33
2023-03-29T02:00:16.155Z,3.60
2023-03-29T02:05:20.425Z,3.50
2023-03-29T02:10:25.772Z,3.42
2023-03-29T02:15:30.635Z,3.67
2023-03-29T02:20:37.049Z,3.65
2023-03-29T02:25:40.678Z,3.83
2023-03-29T02:30:48.510Z,3.45
2023-03-29T02:35:54.673Z,3.38
2023-03-29T02:40:59.361Z,3.58
2023-03-29T02:46:04.410Z,3.70
2023-03-29T02:51:10.637Z,4.13
2023-03-29T02:56:14.925Z,3.58
2023-03-29T03:01:20.535Z,4.63
2023-03-29T03:06:25.211Z,3.80
2023-03-29T03:11:29.281Z,2.90
2023-03-29T03:16:34.304Z,3.60
2023-03-29T03:21:38.393Z,3.00
2023-03-29T03:26:43.398Z,3.30
2023-03-29T03:31:49.899Z,3.42
2023-03-29T03:37:17.132Z,3.63
2023-03-29T03:42:20.825Z,2.65
2023-03-29T03:47:27.139Z,2.67
2023-03-29T03:52:34.291Z,2.85
2023-03-29T03:57:38.266Z,2.47
2023-03-29T04:02:45.822Z,2.20
2023-03-29T04:07:49.543Z,2.90
2023-03-29T04:13:08.388Z,2.67
2023-03-29T04:18:26.544Z,2.42
2023-03-29T04:23:34.249Z,2.40
2023-03-29T04:28:38.637Z,2.47
2023-03-29T04:38:53.956Z,2.20
2023-03-29T04:43:57.782Z,3.30
2023-03-29T04:49:04.003Z,3.40
2023-03-29T04:54:11.801Z,3.30
2023-03-29T04:59:37.979Z,3.30
2023-03-29T05:04:58.793Z,3.50
2023-03-29T05:10:02.657Z,3.03
2023-03-29T05:15:08.153Z,3.63
2023-03-29T05:20:14.513Z,3.38
2023-03-29T05:25:20.576Z,3.28
2023-03-29T05:30:24.389Z,3.65
2023-03-29T05:35:43.773Z,3.25
2023-03-29T05:40:47.401Z,3.40
2023-03-29T05:46:16.917Z,3.47
2023-03-29T05:51:28.845Z,3.60
2023-03-29T05:56:33.537Z,3.55
2023-03-29T06:01:37.226Z,3.08
2023-03-29T06:06:45.394Z,3.53
2023-03-29T06:11:48.936Z,3.72
2023-03-29T06:17:12.514Z,3.70
2023-03-29T06:22:19.141Z,3.70
2023-03-29T06:27:23.561Z,3.67
2023-03-29T06:32:27.873Z,3.92
2023-03-29T06:37:36.902Z,3.55
2023-03-29T06:43:10.244Z,3.42
2023-03-29T06:48:13.960Z,3.92
2023-03-29T06:53:19.275Z,3.72
2023-03-29T06:58:30.993Z,4.22
2023-03-29T07:03:41.295Z,4.22
2023-03-29T07:08:46.993Z,4.18
2023-03-29T07:14:14.439Z,3.92
2023-03-29T07:19:22.780Z,3.95
2023-03-29T07:24:33.519Z,3.92
2023-03-29T07:29:48.832Z,3.83
2023-03-29T07:34:56.417Z,3.97
2023-03-29T07:40:12.743Z,3.38
2023-03-29T07:45:42.898Z,3.92
2023-03-29T07:50:48.800Z,4.10
2023-03-29T07:55:57.028Z,4.30
2023-03-29T08:01:32.674Z,4.30
2023-03-29T08:06:55.349Z,3.45
2023-03-29T08:12:07.971Z,3.40
2023-03-29T08:22:23.617Z,3.13
2023-03-29T08:27:47.113Z,3.55
2023-03-29T08:32:58.260Z,3.22
2023-03-29T08:38:02.726Z,2.83
2023-03-29T08:43:21.995Z,3.03
2023-03-29T08:48:46.170Z,2.40
2023-03-29T08:53:55.907Z,2.60
2023-03-29T08:59:18.916Z,3.00
2023-03-29T09:04:25.519Z,2.65
2023-03-29T09:09:38.206Z,2.22
2023-03-29T09:15:00.228Z,2.75
2023-03-29T09:20:12.982Z,2.20
2023-03-29T09:25:21.475Z,2.40
2023-03-29T09:30:31.148Z,2.47
2023-03-29T09:35:41.324Z,2.25
2023-03-29T09:40:46.663Z,2.80
2023-03-29T09:45:57.722Z,2.60
2023-03-29T09:51:04.293Z,2.22
2023-03-29T09:56:09.773Z,2.47
2023-03-29T10:01:27.544Z,2.22
2023-03-29T10:06:31.825Z,2.47
2023-03-29T10:11:40.706Z,2.70
2023-03-29T10:16:46.521Z,2.10
2023-03-29T10:21:51.841Z,2.13
2023-03-29T10:26:56.578Z,2.92
2023-03-29T10:32:01.747Z,3.15
2023-03-29T10:37:08.543Z,1.90
2023-03-29T10:42:17.104Z,1.95
2023-03-29T10:47:22.926Z,2.22
2023-03-29T10:52:27.022Z,2.22
2023-03-29T10:57:34.293Z,2.15
2023-03-29T11:03:15.773Z,2.30
2023-03-29T11:08:44.550Z,2.05
2023-03-29T11:13:52.994Z,2.50
2023-03-29T11:19:36.205Z,2.42
2023-03-29T11:24:54.082Z,2.90
2023-03-29T11:30:14.819Z,2.35
2023-03-29T11:35:42.790Z,2.55
2023-03-29T11:40:59.306Z,2.95
2023-03-29T11:46:06.492Z,2.60
2023-03-29T11:51:14.091Z,2.60
2023-03-29T11:56:29.235Z,2.53
2023-03-29T12:01:34.703Z,2.67
2023-03-29T12:06:40.801Z,2.88
2023-03-29T12:11:49.700Z,2.58
2023-03-29T12:16:54.744Z,2.00
2023-03-29T12:21:59.773Z,1.60
2023-03-29T12:27:21.480Z,1.80
2023-03-29T12:32:40.530Z,2.13
2023-03-29T12:38:18.024Z,1.90
2023-03-29T12:43:54.934Z,2.10
2023-03-29T12:49:08.821Z,2.05
2023-03-29T12:54:15.438Z,1.58
2023-03-29T12:59:27.200Z,1.83
2023-03-29T13:04:40.092Z,1.55
2023-03-29T13:09:51.673Z,1.70
2023-03-29T13:14:57.694Z,1.50
2023-03-29T13:20:24.017Z,1.48
2023-03-29T13:25:58.378Z,1.30
2023-03-29T13:31:05.753Z,1.65
2023-03-29T13:36:12.720Z,2.42
2023-03-29T13:41:33.626Z,1.63
2023-03-29T13:46:40.999Z,2.30
2023-03-29T13:51:50.068Z,1.92
2023-03-29T13:57:03.395Z,1.88
2023-03-29T14:02:09.191Z,1.80
2023-03-29T14:07:14.388Z,1.60
2023-03-29T14:12:18.240Z,2.30
2023-03-29T14:17:26.780Z,1.42
2023-03-29T14:22:38.926Z,2.00
2023-03-29T14:27:46.079Z,1.80
2023-03-29T14:32:53.638Z,1.80
2023-03-29T14:38:01.329Z,1.45
2023-03-29T14:43:08.264Z,1.55
2023-03-29T14:48:15.170Z,1.40
2023-03-29T14:53:20.490Z,1.50
2023-03-29T14:58:25.285Z,1.70
2023-03-29T15:03:30.463Z,2.40
2023-03-29T15:08:35.753Z,1.60
2023-03-29T15:13:40.904Z,1.65
2023-03-29T15:18:46.026Z,1.63
2023-03-29T15:23:52.909Z,1.95
2023-03-29T15:29:03.192Z,1.70
2023-03-29T15:34:09.847Z,1.73
2023-03-29T15:39:13.826Z,2.05
2023-03-29T15:44:18.557Z,1.85
2023-03-29T15:49:26.141Z,1.80
2023-03-29T15:54:31.745Z,1.67
2023-03-29T15:59:36.750Z,1.88
2023-03-29T16:04:41.898Z,2.25
2023-03-29T16:09:46.006Z,1.92
2023-03-29T16:14:49.507Z,2.22
2023-03-29T16:19:55.280Z,2.03
2023-03-29T16:24:59.680Z,1.90
2023-03-29T16:30:04.032Z,1.80
2023-03-29T16:35:13.755Z,1.77
2023-03-29T16:40:17.623Z,2.38
2023-03-29T16:45:21.412Z,1.60
2023-03-29T16:50:27.916Z,1.48
2023-03-29T16:55:31.608Z,1.70
2023-03-29T17:00:35.362Z,1.73
2023-03-29T17:05:50.327Z,1.60
2023-03-29T17:10:55.549Z,1.50
2023-03-29T17:15:59.855Z,1.70
2023-03-29T17:21:05.661Z,1.80
2023-03-29T17:26:09.138Z,1.90
2023-03-29T17:31:12.610Z,2.13
2023-03-29T17:36:17.410Z,1.90
2023-03-29T17:41:21.510Z,2.20
2023-03-29T17:46:26.896Z,2.28
2023-03-29T17:51:31.778Z,2.15
2023-03-29T17:56:35.311Z,1.83
2023-03-29T18:01:39.650Z,2.28
2023-03-29T18:06:46.038Z,2.10
2023-03-29T18:11:49.726Z,2.33
2023-03-29T18:16:53.423Z,3.83
2023-03-29T18:22:04.518Z,5.25
2023-03-29T18:27:12.339Z,2.60
2023-03-29T18:32:16.315Z,2.92
2023-03-29T18:37:21.847Z,2.90
2023-03-29T18:42:33.051Z,3.78
2023-03-29T18:47:38.745Z,3.90
2023-03-29T18:52:44.489Z,6.15
2023-03-29T18:57:48.287Z,3.30
2023-03-29T19:02:52.141Z,3.13
2023-03-29T19:07:58.540Z,2.00
2023-03-29T19:13:02.511Z,1.80
2023-03-29T19:18:06.521Z,1.92
2023-03-29T19:23:11.763Z,2.50
2023-03-29T19:28:15.236Z,2.10
2023-03-29T19:33:18.560Z,2.05
2023-03-29T19:38:27.439Z,2.60
2023-03-29T19:43:31.673Z,2.22
2023-03-29T19:48:35.976Z,2.20
2023-03-29T19:53:41.850Z,2.60
2023-03-29T19:58:46.839Z,2.25
2023-03-29T20:03:51.277Z,2.42
2023-03-29T20:08:59.336Z,2.92
2023-03-29T20:14:02.886Z,5.78
2023-03-29T20:19:08.217Z,4.00
2023-03-29T20:24:15.073Z,3.03
2023-03-29T20:29:18.859Z,2.40
2023-03-29T20:34:24.547Z,2.55
2023-03-29T20:39:31.352Z,2.65
2023-03-29T20:44:35.591Z,2.70
2023-03-29T20:49:39.502Z,2.78
2023-03-29T20:54:45.004Z,2.50
2023-03-29T20:59:49.401Z,2.47
2023-03-29T21:04:53.010Z,2.17
2023-03-29T21:10:01.066Z,2.88
2023-03-29T21:15:07.674Z,2.25
2023-03-29T21:20:12.048Z,2.60
2023-03-29T21:25:17.816Z,2.47
2023-03-29T21:30:21.490Z,2.60
2023-03-29T21:35:25.485Z,2.33
2023-03-29T21:40:30.929Z,2.35
2023-03-29T21:45:34.297Z,2.60
2023-03-29T21:50:38.703Z,2.70
2023-03-29T21:55:43.575Z,2.53
2023-03-29T22:00:47.320Z,3.25
2023-03-29T22:06:01.511Z,2.17
2023-03-29T22:11:08.605Z,1.90
2023-03-29T22:16:16.887Z,1.98
2023-03-29T22:21:22.999Z,2.17
2023-03-29T22:26:28.559Z,2.22
2023-03-29T22:31:33.602Z,2.10
2023-03-29T22:36:37.292Z,2.00
2023-03-29T22:41:42.564Z,1.90
2023-03-29T22:46:45.843Z,1.58
2023-03-29T22:51:49.197Z,1.67
2023-03-29T22:56:56.299Z,1.65
2023-03-29T23:01:59.934Z,1.70
2023-03-29T23:07:03.181Z,1.60
2023-03-29T23:12:09.780Z,1.80
2023-03-29T23:17:13.542Z,1.70
2023-03-29T23:22:17.121Z,1.80
2023-03-29T23:27:21.800Z,2.35
2023-03-29T23:32:25.061Z,1.60
2023-03-29T23:37:28.135Z,1.83
2023-03-29T23:42:33.354Z,1.38
2023-03-29T23:47:37.400Z,2.10
2023-03-29T23:52:41.352Z,1.90
2023-03-29T23:57:46.898Z,1.60
